createdAt,value
2023-02-27T00:00:06.874Z,24.72
2023-02-27T00:01:06.957Z,24.71
2023-02-27T00:02:07.060Z,24.69
2023-02-27T00:03:07.101Z,24.69
2023-02-27T00:04:07.234Z,24.72
2023-02-27T00:05:07.219Z,24.69
2023-02-27T00:06:07.321Z,24.71
2023-02-27T00:07:07.363Z,24.69
2023-02-27T00:08:07.450Z,24.71
2023-02-27T00:09:07.602Z,24.66
2023-02-27T00:10:07.596Z,24.68
2023-02-27T00:11:07.657Z,24.66
2023-02-27T00:12:07.725Z,24.69
2023-02-27T00:13:07.809Z,24.69
2023-02-27T00:14:07.888Z,24.72
2023-02-27T00:15:07.932Z,24.72
2023-02-27T00:16:08.023Z,24.73
2023-02-27T00:17:08.065Z,24.78
2023-02-27T00:18:08.158Z,24.78
2023-02-27T00:19:08.213Z,24.81
2023-02-27T00:20:08.291Z,24.85
2023-02-27T00:21:08.336Z,24.85
2023-02-27T00:22:08.410Z,24.87
2023-02-27T00:23:08.456Z,24.89
2023-02-27T00:24:08.537Z,24.90
2023-02-27T00:25:08.595Z,24.92
2023-02-27T00:26:08.619Z,24.96
2023-02-27T00:27:08.687Z,24.99
2023-02-27T00:28:08.739Z,25.00
2023-02-27T00:29:08.869Z,25.02
2023-02-27T00:30:08.864Z,25.03
2023-02-27T00:31:09.065Z,25.03
2023-02-27T00:32:09.051Z,25.05
2023-02-27T00:33:09.029Z,25.10
2023-02-27T00:34:09.060Z,25.09
2023-02-27T00:35:09.152Z,25.12
2023-02-27T00:36:09.141Z,25.13
2023-02-27T00:37:09.191Z,25.16
2023-02-27T00:38:09.229Z,25.16
2023-02-27T00:39:09.256Z,25.20
2023-02-27T00:40:09.306Z,25.20
2023-02-27T00:41:09.334Z,25.19
2023-02-27T00:42:09.387Z,25.24
2023-02-27T00:43:09.447Z,25.26
2023-02-27T00:44:09.472Z,25.29
2023-02-27T00:45:09.533Z,25.29
2023-02-27T00:46:09.548Z,25.30
2023-02-27T00:47:09.565Z,25.32
2023-02-27T00:48:09.656Z,25.33
2023-02-27T00:49:09.731Z,25.36
2023-02-27T00:50:09.666Z,25.37
2023-02-27T00:51:09.740Z,25.40
2023-02-27T00:52:09.785Z,25.37
2023-02-27T00:53:09.812Z,25.40
2023-02-27T00:54:09.866Z,25.41
2023-02-27T00:55:09.912Z,25.43
2023-02-27T00:56:09.984Z,25.44
2023-02-27T00:57:09.992Z,25.45
2023-02-27T00:58:10.023Z,25.47
2023-02-27T00:59:10.052Z,25.47
2023-02-27T01:00:10.115Z,25.51
2023-02-27T01:12:10.530Z,25.60
2023-02-27T01:13:11.361Z,25.60
2023-02-27T01:14:10.617Z,25.61
2023-02-27T01:15:10.624Z,25.61
2023-02-27T01:16:10.698Z,25.63
2023-02-27T01:35:11.319Z,25.73
2023-02-27T01:36:11.341Z,25.73
2023-02-27T01:37:11.377Z,25.73
2023-02-27T01:38:11.443Z,25.75
2023-02-27T01:39:11.457Z,25.75
2023-02-27T01:40:11.510Z,25.75
2023-02-27T01:41:11.541Z,25.77
2023-02-27T01:42:13.175Z,25.78
2023-02-27T01:43:11.581Z,25.78
2023-02-27T01:44:11.604Z,25.78
2023-02-27T01:45:11.652Z,25.78
2023-02-27T01:46:11.703Z,25.80
2023-02-27T01:48:11.755Z,25.81
2023-02-27T01:49:11.774Z,25.80
2023-02-27T01:50:11.814Z,25.82
2023-02-27T01:51:11.797Z,25.82
2023-02-27T01:52:11.841Z,25.84
2023-02-27T01:53:11.891Z,25.82
2023-02-27T01:54:11.893Z,25.87
2023-02-27T01:55:11.917Z,25.85
2023-02-27T01:56:11.971Z,25.85
2023-02-27T01:57:11.969Z,25.87
2023-02-27T01:58:11.994Z,25.85
2023-02-27T01:59:12.038Z,25.87
2023-02-27T02:00:12.077Z,25.88
2023-02-27T02:01:12.125Z,25.88
2023-02-27T02:02:12.132Z,25.89
2023-02-27T02:03:12.168Z,25.88
2023-02-27T02:04:12.161Z,25.91
2023-02-27T02:05:12.217Z,25.92
2023-02-27T02:06:12.238Z,25.89
2023-02-27T02:07:12.267Z,25.91
2023-02-27T02:08:12.289Z,25.89
2023-02-27T02:09:12.339Z,25.89
2023-02-27T02:10:12.365Z,25.94
2023-02-27T02:11:12.410Z,25.95
2023-02-27T02:12:12.439Z,25.92
2023-02-27T02:13:12.480Z,25.95
2023-02-27T02:14:12.512Z,25.96
2023-02-27T02:15:12.516Z,25.95
2023-02-27T02:16:12.570Z,25.95
2023-02-27T02:17:12.602Z,25.95
2023-02-27T02:18:12.657Z,25.96
2023-02-27T02:19:12.681Z,25.96
2023-02-27T02:20:12.770Z,25.96
2023-02-27T02:21:12.818Z,25.99
2023-02-27T02:22:12.883Z,25.98
2023-02-27T02:23:12.991Z,26.01
2023-02-27T02:24:13.046Z,25.98
2023-02-27T02:25:13.088Z,25.98
2023-02-27T03:49:16.497Z,26.26
2023-02-27T03:50:16.545Z,26.29
2023-02-27T03:51:16.603Z,26.29
2023-02-27T03:52:16.644Z,26.28
2023-02-27T03:53:16.742Z,26.31
2023-02-27T03:54:16.779Z,26.31
2023-02-27T03:55:16.812Z,26.31
2023-02-27T03:56:16.903Z,26.31
2023-02-27T03:57:16.937Z,26.29
2023-02-27T03:58:16.957Z,26.32
2023-02-27T03:59:16.991Z,26.35
2023-02-27T04:00:17.060Z,26.33
2023-02-27T04:01:17.789Z,26.31
2023-02-27T04:02:17.162Z,26.31
2023-02-27T04:03:17.256Z,26.29
2023-02-27T04:04:17.294Z,26.33
2023-02-27T04:05:17.334Z,26.33
2023-02-27T04:06:17.362Z,26.33
2023-02-27T04:07:17.447Z,26.33
2023-02-27T04:08:17.492Z,26.33
2023-02-27T04:09:17.586Z,26.35
2023-02-27T04:10:17.631Z,26.33
2023-02-27T04:11:17.679Z,26.35
2023-02-27T04:12:17.753Z,26.36
2023-02-27T04:13:17.805Z,26.35
2023-02-27T04:14:17.854Z,26.39
2023-02-27T04:15:17.898Z,26.38
2023-02-27T04:16:17.955Z,26.38
2023-02-27T04:17:17.992Z,26.38
2023-02-27T04:18:18.027Z,26.39
2023-02-27T04:19:18.098Z,26.38
2023-02-27T04:20:18.140Z,26.36
2023-02-27T04:21:18.208Z,26.38
2023-02-27T04:22:18.262Z,26.38
2023-02-27T04:23:18.280Z,26.40
2023-02-27T04:24:18.350Z,26.39
2023-02-27T04:25:18.404Z,26.39
2023-02-27T04:26:18.471Z,26.39
2023-02-27T04:27:18.480Z,26.38
2023-02-27T04:28:18.586Z,26.40
2023-02-27T04:29:18.609Z,26.40
2023-02-27T04:30:18.646Z,26.40
2023-02-27T04:31:18.785Z,26.40
2023-02-27T04:32:18.851Z,26.40
2023-02-27T04:33:18.805Z,26.39
2023-02-27T04:34:18.853Z,26.40
2023-02-27T04:35:18.930Z,26.39
2023-02-27T04:36:18.943Z,26.42
2023-02-27T04:37:18.977Z,26.40
2023-02-27T04:38:19.026Z,26.39
2023-02-27T04:39:19.104Z,26.40
2023-02-27T04:40:19.167Z,26.40
2023-02-27T04:41:19.191Z,26.39
2023-02-27T04:42:19.213Z,26.42
2023-02-27T06:00:29.539Z,26.02
2023-02-27T06:01:22.535Z,26.01
2023-02-27T06:02:22.554Z,26.01
2023-02-27T06:03:22.539Z,26.01
2023-02-27T06:04:22.523Z,26.02
2023-02-27T06:05:22.565Z,26.02
2023-02-27T06:06:22.552Z,26.01
2023-02-27T06:07:22.547Z,25.99
2023-02-27T06:08:22.564Z,25.99
2023-02-27T06:09:22.583Z,26.01
2023-02-27T06:10:22.559Z,26.01
2023-02-27T06:11:22.619Z,26.01
2023-02-27T06:12:22.591Z,26.01
2023-02-27T06:13:22.586Z,25.98
2023-02-27T06:14:22.604Z,26.01
2023-02-27T06:15:22.632Z,25.99
2023-02-27T06:16:22.639Z,26.01
2023-02-27T06:17:22.637Z,25.99
2023-02-27T06:18:22.623Z,26.01
2023-02-27T06:19:22.659Z,25.99
2023-02-27T06:20:22.639Z,26.01
2023-02-27T06:21:22.656Z,25.99
2023-02-27T06:22:22.675Z,26.01
2023-02-27T06:23:22.701Z,26.01
2023-02-27T06:24:22.706Z,25.85
2023-02-27T06:25:22.678Z,25.87
2023-02-27T06:26:22.716Z,25.85
2023-02-27T06:27:22.705Z,25.80
2023-02-27T06:28:22.729Z,25.80
2023-02-27T06:29:22.720Z,25.81
2023-02-27T06:30:22.776Z,25.81
2023-02-27T06:31:22.719Z,25.78
2023-02-27T06:32:22.887Z,25.81
2023-02-27T06:33:22.746Z,25.85
2023-02-27T06:34:22.764Z,25.85
2023-02-27T06:35:22.773Z,25.80
2023-02-27T06:36:22.784Z,25.77
2023-02-27T06:37:22.788Z,25.73
2023-02-27T06:38:22.835Z,25.68
2023-02-27T06:39:22.895Z,25.61
2023-02-27T06:40:22.859Z,25.57
2023-02-27T06:41:22.879Z,25.54
2023-02-27T06:42:22.876Z,25.47
2023-02-27T06:43:22.926Z,25.40
2023-02-27T06:44:22.907Z,25.40
2023-02-27T11:30:49.686Z,26.36
2023-02-27T13:03:40.700Z,26.38
2023-02-27T13:04:40.698Z,26.35
2023-02-27T13:05:40.681Z,26.35
2023-02-27T13:06:40.683Z,26.29
2023-02-27T13:07:40.682Z,26.28
2023-02-27T13:08:40.675Z,26.26
2023-02-27T13:09:40.666Z,26.23
2023-02-27T13:10:40.622Z,26.23
2023-02-27T13:11:40.606Z,26.26
2023-02-27T13:12:40.766Z,26.26
2023-02-27T13:13:40.900Z,26.25
2023-02-27T13:14:40.779Z,26.26
2023-02-27T13:15:40.563Z,26.28
2023-02-27T13:16:40.613Z,26.29
2023-02-27T13:17:40.572Z,26.29
2023-02-27T13:18:40.604Z,26.33
2023-02-27T13:19:40.560Z,26.33
2023-02-27T13:20:40.505Z,26.33
2023-02-27T13:21:40.510Z,26.35
2023-02-27T13:22:40.748Z,26.38
2023-02-27T13:23:40.430Z,26.36
2023-02-27T13:24:40.425Z,26.39
2023-02-27T13:25:40.372Z,26.40
2023-02-27T13:26:40.406Z,26.40
2023-02-27T13:27:40.360Z,26.39
2023-02-27T13:28:40.286Z,26.40
2023-02-27T13:29:40.258Z,26.42
2023-02-27T13:30:40.253Z,26.42
2023-02-27T13:31:40.333Z,26.42
2023-02-27T13:32:44.118Z,26.42
2023-02-27T13:33:40.242Z,26.45
2023-02-27T13:34:40.108Z,26.42
2023-02-27T13:35:40.127Z,26.45
2023-02-27T13:36:40.062Z,26.46
2023-02-27T13:37:40.021Z,26.45
2023-02-27T13:38:39.973Z,26.45
2023-02-27T13:39:39.926Z,26.45
2023-02-27T13:40:39.883Z,26.45
2023-02-27T13:41:39.830Z,26.45
2023-02-27T13:42:39.800Z,26.47
2023-02-27T13:43:51.374Z,26.46
2023-02-27T13:44:40.719Z,26.46
2023-02-27T13:45:39.715Z,26.47
2023-02-27T13:46:39.646Z,26.46
2023-02-27T13:47:39.566Z,26.46
2023-02-27T13:48:39.556Z,26.46
2023-02-27T13:49:39.473Z,26.46
2023-02-27T13:50:39.465Z,26.45
2023-02-27T13:51:39.412Z,26.46
2023-02-27T13:52:39.378Z,26.46
2023-02-27T13:53:39.358Z,26.45
2023-02-27T13:54:39.297Z,26.46
2023-02-27T13:55:39.228Z,26.49
2023-02-27T13:56:39.224Z,26.46
2023-02-27T13:57:39.175Z,26.45
2023-02-27T13:58:39.102Z,26.46
2023-02-27T13:59:39.055Z,26.43
2023-02-27T14:00:39.049Z,26.43
2023-02-27T14:01:39.099Z,26.42
2023-02-27T14:02:46.569Z,26.42
2023-02-27T14:03:39.932Z,26.43
2023-02-27T14:04:38.924Z,26.40
2023-02-27T14:05:38.863Z,26.40
2023-02-27T14:06:38.809Z,26.39
2023-02-27T14:07:38.752Z,26.42
2023-02-27T14:08:38.694Z,26.40
2023-02-27T14:09:38.698Z,26.40
2023-02-27T14:10:38.654Z,26.39
2023-02-27T14:11:38.582Z,26.36
2023-02-27T14:12:45.372Z,26.35
2023-02-27T14:13:39.485Z,26.31
2023-02-27T14:14:38.443Z,26.31
2023-02-27T14:15:38.368Z,26.31
2023-02-27T14:16:38.341Z,26.26
2023-02-27T14:17:38.277Z,26.23
2023-02-27T14:18:38.213Z,26.21
2023-02-27T14:19:38.185Z,26.22
2023-02-27T14:20:38.182Z,26.25
2023-02-27T14:21:38.097Z,26.25
2023-02-27T14:22:38.090Z,26.23
2023-02-27T14:23:38.027Z,26.21
2023-02-27T14:24:37.990Z,26.18
2023-02-27T14:25:37.919Z,26.23
2023-02-27T14:26:37.957Z,26.26
2023-02-27T14:27:37.884Z,26.31
2023-02-27T14:28:37.829Z,26.36
2023-02-27T14:29:37.801Z,26.35
2023-02-27T14:30:37.709Z,26.42
2023-02-27T14:31:37.715Z,26.43
2023-02-27T14:32:37.646Z,26.47
2023-02-27T14:33:40.474Z,26.50
2023-02-27T14:34:37.552Z,26.49
2023-02-27T14:35:37.539Z,26.52
2023-02-27T14:36:37.445Z,26.50
2023-02-27T14:37:37.386Z,26.49
2023-02-27T14:38:37.342Z,26.47
2023-02-27T14:39:37.302Z,26.43
2023-02-27T14:40:37.255Z,26.47
2023-02-27T14:41:37.226Z,26.50
2023-02-27T14:42:37.263Z,26.53
2023-02-27T14:43:37.104Z,26.53
2023-02-27T14:44:37.063Z,26.54
2023-02-27T14:45:37.021Z,26.56
2023-02-27T14:46:37.002Z,26.57
2023-02-27T14:47:36.909Z,26.57
2023-02-27T14:48:36.848Z,26.60
2023-02-27T14:49:36.849Z,26.62
2023-02-27T14:50:36.765Z,26.59
2023-02-27T14:51:36.697Z,26.59
2023-02-27T14:52:36.676Z,26.63
2023-02-27T14:53:36.599Z,26.60
2023-02-27T14:54:36.605Z,26.63
2023-02-27T14:55:36.504Z,26.64
2023-02-27T14:56:36.425Z,26.64
2023-02-27T16:33:34.151Z,26.08
2023-02-27T16:34:44.678Z,26.15
2023-02-27T16:35:35.091Z,26.19
2023-02-27T16:36:34.039Z,26.23
2023-02-27T16:37:34.008Z,26.29
2023-02-27T16:38:33.948Z,26.31
2023-02-27T16:39:33.893Z,26.35
2023-02-27T16:40:33.982Z,26.39
2023-02-27T16:41:33.895Z,26.42
2023-02-27T16:42:33.780Z,26.47
2023-02-27T16:43:33.830Z,26.46
2023-02-27T16:44:33.678Z,26.50
2023-02-27T16:45:33.670Z,26.53
2023-02-27T16:46:33.580Z,26.53
2023-02-27T16:47:33.534Z,26.57
2023-02-27T16:48:33.508Z,26.59
2023-02-27T16:49:33.737Z,26.62
2023-02-27T16:50:33.491Z,26.66
2023-02-27T16:51:33.484Z,26.64
2023-02-27T16:52:33.455Z,26.67
2023-02-27T16:53:33.487Z,26.70
2023-02-27T16:54:33.487Z,26.70
2023-02-27T16:55:33.904Z,26.73
2023-02-27T16:56:38.420Z,26.72
2023-02-27T16:57:34.415Z,26.74
2023-02-27T16:58:33.756Z,26.76
2023-02-27T16:59:33.308Z,26.74
2023-02-27T17:00:33.306Z,26.80
2023-02-27T17:03:33.179Z,26.72
2023-02-27T17:04:33.149Z,26.67
2023-02-27T17:05:33.073Z,26.64
2023-02-27T17:06:33.039Z,26.59
2023-02-27T17:07:32.990Z,26.59
2023-02-27T17:08:33.038Z,26.57
2023-02-27T17:09:32.921Z,26.56
2023-02-27T17:10:32.867Z,26.53
2023-02-27T17:11:32.838Z,26.53
2023-02-27T17:12:32.812Z,26.53
2023-02-27T17:13:32.806Z,26.52
2023-02-27T17:14:32.752Z,26.52
2023-02-27T17:15:32.769Z,26.53
2023-02-27T17:16:32.804Z,26.52
2023-02-27T17:17:32.712Z,26.50
2023-02-27T17:18:32.743Z,26.50
2023-02-27T17:19:32.654Z,26.52
2023-02-27T17:20:32.643Z,26.53
2023-02-27T17:21:32.623Z,26.50
2023-02-27T17:22:32.603Z,26.47
2023-02-27T17:23:32.597Z,26.47
2023-02-27T17:24:32.574Z,26.49
2023-02-27T17:25:32.548Z,26.46
2023-02-27T17:26:32.527Z,26.47
2023-02-27T17:27:32.534Z,26.46
2023-02-27T17:28:32.498Z,26.46
2023-02-27T17:29:32.481Z,26.47
2023-02-27T17:30:32.494Z,26.45
2023-02-27T17:31:32.431Z,26.45
2023-02-27T17:32:32.390Z,26.43
2023-02-27T17:33:32.407Z,26.43
2023-02-27T17:34:32.368Z,26.43
2023-02-27T17:35:32.371Z,26.42
2023-02-27T17:36:32.335Z,26.40
2023-02-27T17:37:32.362Z,26.39
2023-02-27T17:38:32.348Z,26.38
2023-02-27T17:39:32.356Z,26.39
2023-02-27T17:40:32.318Z,26.38
2023-02-27T17:41:32.331Z,26.38
2023-02-27T17:42:32.340Z,26.39
2023-02-27T17:43:32.310Z,26.35
2023-02-27T17:44:32.328Z,26.36
2023-02-27T17:45:32.299Z,26.33
2023-02-27T17:46:32.865Z,26.35
2023-02-27T17:47:32.309Z,26.35
2023-02-27T17:48:32.353Z,26.35
2023-02-27T17:49:32.295Z,26.33
2023-02-27T18:38:31.782Z,26.14
2023-02-27T18:39:31.771Z,26.14
2023-02-27T18:40:31.775Z,26.14
2023-02-27T18:41:31.750Z,26.15
2023-02-27T18:42:31.706Z,26.14
2023-02-27T18:43:31.829Z,26.11
2023-02-27T18:44:31.712Z,26.12
2023-02-27T18:45:31.714Z,26.11
2023-02-27T18:46:32.151Z,26.09
2023-02-27T18:47:31.670Z,26.11
2023-02-27T18:48:31.674Z,26.09
2023-02-27T18:49:31.674Z,26.09
2023-02-27T18:50:31.732Z,26.11
2023-02-27T18:51:31.644Z,26.11
2023-02-27T18:52:31.646Z,26.08
2023-02-27T18:53:31.660Z,26.11
2023-02-27T18:54:31.626Z,26.11
2023-02-27T18:55:31.643Z,26.11
2023-02-27T18:56:31.942Z,26.11
2023-02-27T18:57:31.608Z,26.11
2023-02-27T18:58:31.625Z,26.08
2023-02-27T18:59:31.633Z,26.09
2023-02-27T19:00:31.604Z,26.08
2023-02-27T19:01:31.626Z,26.09
2023-02-27T19:02:31.687Z,26.12
2023-02-27T19:03:31.715Z,26.08
2023-02-27T19:04:31.567Z,26.11
2023-02-27T19:05:31.561Z,26.09
2023-02-27T19:06:31.538Z,26.11
2023-02-27T19:07:31.520Z,26.09
2023-02-27T19:08:31.522Z,26.09
2023-02-27T19:09:31.509Z,26.09
2023-02-27T19:10:31.562Z,26.09
2023-02-27T19:11:31.525Z,26.08
2023-02-27T19:12:31.500Z,26.06
2023-02-27T19:13:31.505Z,26.09
2023-02-27T19:14:31.534Z,26.05
2023-02-27T19:15:31.588Z,26.08
2023-02-27T19:16:31.933Z,26.06
2023-02-27T19:17:31.510Z,26.08
2023-02-27T19:18:31.526Z,26.06
2023-02-27T19:19:31.535Z,26.06
2023-02-27T19:20:31.534Z,26.06
2023-02-27T19:21:31.540Z,26.08
2023-02-27T19:22:31.540Z,26.04
2023-02-27T19:23:31.506Z,26.05
2023-02-27T19:24:31.506Z,26.06
2023-02-27T19:25:31.524Z,26.05
2023-02-27T19:26:31.773Z,26.04
2023-02-27T19:27:31.531Z,26.04
2023-02-27T19:28:31.550Z,26.06
2023-02-27T19:29:31.543Z,26.06
2023-02-27T19:30:31.517Z,26.06
2023-02-27T19:31:31.758Z,26.04
2023-02-27T19:32:31.561Z,26.05
2023-02-27T19:33:31.535Z,26.04
2023-02-27T19:34:31.558Z,26.04
2023-02-27T19:35:31.580Z,26.06
2023-02-27T19:36:31.680Z,26.05
2023-02-27T19:37:31.550Z,26.05
2023-02-27T19:38:31.571Z,26.04
2023-02-27T19:39:31.577Z,26.02
2023-02-27T19:40:31.577Z,26.04
2023-02-27T19:41:33.430Z,26.05
2023-02-27T19:42:31.561Z,26.02
2023-02-27T19:43:31.558Z,26.02
2023-02-27T19:44:31.560Z,26.02
2023-02-27T19:45:31.572Z,26.02
2023-02-27T19:46:32.028Z,26.01
2023-02-27T19:47:31.592Z,26.02
2023-02-27T19:48:31.583Z,26.02
2023-02-27T19:49:31.571Z,25.99
2023-02-27T19:50:31.564Z,26.01
2023-02-27T19:51:31.555Z,26.01
2023-02-27T19:52:31.596Z,25.99
2023-02-27T19:53:31.593Z,26.01
2023-02-27T19:54:31.564Z,25.99
2023-02-27T19:55:31.555Z,26.01
2023-02-27T19:56:31.928Z,25.99
2023-02-27T19:57:31.580Z,26.01
2023-02-27T19:58:31.582Z,25.99
2023-02-27T19:59:31.607Z,25.99
2023-02-27T20:00:31.606Z,26.02
2023-02-27T20:01:31.594Z,25.96
2023-02-27T20:02:31.574Z,25.98
2023-02-27T20:03:31.624Z,25.99
2023-02-27T20:04:31.591Z,26.01
2023-02-27T20:05:31.590Z,25.99
2023-02-27T20:06:31.757Z,26.01
2023-02-27T20:07:31.581Z,25.99
2023-02-27T20:08:31.578Z,25.99
2023-02-27T20:09:31.585Z,25.99
2023-02-27T20:10:31.611Z,25.99
2023-02-27T20:11:31.600Z,25.98
2023-02-27T20:12:31.606Z,25.96
2023-02-27T20:13:31.636Z,25.99
2023-02-27T20:14:31.630Z,25.99
2023-02-27T20:15:31.629Z,25.98
2023-02-27T20:16:31.956Z,25.98
2023-02-27T20:17:31.602Z,25.98
2023-02-27T20:18:31.627Z,25.98
2023-02-27T20:19:31.616Z,25.96
2023-02-27T20:20:32.111Z,25.95
2023-02-27T20:21:32.012Z,25.98
2023-02-27T20:22:31.615Z,25.98
2023-02-27T20:23:31.653Z,25.98
2023-02-27T20:24:31.637Z,25.96
2023-02-27T20:25:31.602Z,25.99
2023-02-27T20:26:31.778Z,25.98
2023-02-27T20:27:31.622Z,25.98
2023-02-27T20:28:31.598Z,25.98
2023-02-27T20:29:31.610Z,25.96
2023-02-27T20:30:31.632Z,25.96
2023-02-27T20:31:32.013Z,25.96
2023-02-27T20:32:31.846Z,25.95
2023-02-27T20:33:31.658Z,25.98
2023-02-27T20:34:31.641Z,25.95
2023-02-27T20:35:31.656Z,25.96
2023-02-27T20:36:31.642Z,25.95
2023-02-27T20:37:31.638Z,25.95
2023-02-27T20:38:31.647Z,25.95
2023-02-27T20:39:31.663Z,25.96
2023-02-27T20:40:31.646Z,25.94
2023-02-27T20:41:31.902Z,25.94
2023-02-27T20:42:31.636Z,25.95
2023-02-27T20:43:31.645Z,25.98
2023-02-27T20:44:31.656Z,25.94
2023-02-27T20:45:31.667Z,25.94
2023-02-27T20:46:31.652Z,25.94
2023-02-27T20:47:31.652Z,25.94
2023-02-27T20:48:31.658Z,25.95
2023-02-27T20:49:31.656Z,25.95
2023-02-27T20:50:31.687Z,25.95
2023-02-27T20:51:31.899Z,25.92
2023-02-27T20:52:31.669Z,25.95
2023-02-27T20:53:31.689Z,25.96
2023-02-27T20:54:31.681Z,25.95
2023-02-27T20:55:31.664Z,25.92
2023-02-27T20:56:31.701Z,25.95
2023-02-27T20:57:31.681Z,25.94
2023-02-27T20:58:31.686Z,25.94
2023-02-27T20:59:31.694Z,25.95
2023-02-27T21:00:31.697Z,25.92
2023-02-27T21:01:32.256Z,25.92
2023-02-27T21:02:31.653Z,25.92
2023-02-27T21:03:38.543Z,25.92
2023-02-27T21:04:32.821Z,25.92
2023-02-27T21:05:31.594Z,25.95
2023-02-27T21:06:31.587Z,25.96
2023-02-27T21:07:31.566Z,25.94
2023-02-27T21:08:31.549Z,25.95
2023-02-27T21:09:31.502Z,25.89
2023-02-27T21:10:31.484Z,25.92
2023-02-27T21:11:31.737Z,25.95
2023-02-27T21:12:31.399Z,25.92
2023-02-27T21:13:31.423Z,25.92
2023-02-27T21:14:31.352Z,25.91
2023-02-27T21:15:31.333Z,25.92
2023-02-27T21:17:31.275Z,25.92
2023-02-27T21:18:31.260Z,25.94
2023-02-27T21:19:31.257Z,25.92
2023-02-27T21:20:31.230Z,25.92
2023-02-27T21:21:31.570Z,25.92
2023-02-27T21:22:31.232Z,25.91
2023-02-27T21:23:31.240Z,25.92
2023-02-27T21:24:31.210Z,25.92
2023-02-27T21:25:31.223Z,25.92
2023-02-27T21:26:33.275Z,25.92
2023-02-27T21:27:31.207Z,25.94
2023-02-27T21:28:31.195Z,25.91
2023-02-27T21:29:31.137Z,25.91
2023-02-27T21:30:31.124Z,25.92
2023-02-27T21:31:31.622Z,25.92
2023-02-27T21:32:31.046Z,25.92
2023-02-27T21:33:31.027Z,25.92
2023-02-27T21:34:31.017Z,25.89
2023-02-27T21:35:31.068Z,25.94
2023-02-27T21:36:30.956Z,25.91
2023-02-27T21:37:30.906Z,25.91
2023-02-27T21:38:30.930Z,25.92
2023-02-27T21:39:30.861Z,25.92
2023-02-27T21:40:30.807Z,25.91
2023-02-27T21:41:31.110Z,25.92
2023-02-27T21:42:30.743Z,25.89
2023-02-27T21:43:30.740Z,25.91
2023-02-27T21:44:30.679Z,25.92
2023-02-27T21:45:30.675Z,25.92
2023-02-27T21:46:30.627Z,25.91
2023-02-27T21:47:30.693Z,25.92
2023-02-27T21:48:30.590Z,25.89
2023-02-27T21:49:30.540Z,25.92
2023-02-27T21:50:30.502Z,25.92
2023-02-27T21:51:39.910Z,25.92
2023-02-27T21:52:31.492Z,25.91
2023-02-27T21:53:30.431Z,25.91
2023-02-27T21:54:30.404Z,25.91
2023-02-27T21:55:30.384Z,25.91
2023-02-27T21:56:30.523Z,25.91
2023-02-27T21:57:30.315Z,25.91
2023-02-27T21:58:30.283Z,25.91
2023-02-27T21:59:30.251Z,25.89
2023-02-27T23:12:30.294Z,25.81
2023-02-27T23:13:30.265Z,25.80
2023-02-27T23:14:30.285Z,25.82
2023-02-27T23:15:30.306Z,25.81
2023-02-27T23:16:30.329Z,25.81
2023-02-27T23:17:30.316Z,25.78
2023-02-27T23:18:30.361Z,25.81
2023-02-27T23:19:30.369Z,25.78
2023-02-27T23:20:30.326Z,25.81
2023-02-27T23:21:30.820Z,25.78
2023-02-27T23:22:30.372Z,25.78
2023-02-27T23:23:30.385Z,25.78
2023-02-27T23:24:30.385Z,25.78
2023-02-27T23:25:30.396Z,25.80
2023-02-27T23:26:30.425Z,25.78
2023-02-27T23:27:30.440Z,25.77
2023-02-27T23:28:30.440Z,25.78
